Time;durP1;ratioP1;P1;durP2;ratioP2;P2;SDS_P1;SDS_P2;PMS_P1;PMS_P2;Temp;Humidity;BMP_temperature;BMP_pressure;BME280_temperature;BME280_humidity;BME280_pressure;Samples;Min_cycle;Max_cycle;Signal;HPM_P1;HPM_P2
2022/12/19 00:00:06;;;;;;;;;;;;;;;6.11;39.99;101332.84;4511867;31;34576;-83
2022/12/19 00:02:41;;;;;;;;;;;;;;;5.91;40.24;101336.62;4512928;31;33414;-81
2022/12/19 00:05:09;;;;;;;;;;;;;;;5.76;40.56;101336.56;4515023;31;33564;-81
2022/12/19 00:07:36;;;;;;;;;;;;;;;5.75;40.72;101337.31;4506217;31;35543;-82
2022/12/19 00:10:04;;;;;;;;;;;;;;;5.80;40.47;101346.25;4518945;31;33541;-81
2022/12/19 00:12:32;;;;;;;;;;;;;;;5.81;40.67;101346.34;4515578;31;32976;-81
2022/12/19 00:14:59;;;;;;;;;;;;;;;5.93;40.32;101351.44;4515114;31;33421;-82
2022/12/19 00:17:31;;;;;;;;;;;;;;;5.87;39.97;101358.72;4512837;31;34434;-82
2022/12/19 00:20:03;;;;;;;;;;;;;;;5.85;40.24;101353.47;4513921;31;32598;-81
2022/12/19 00:22:30;;;;;;;;;;;;;;;5.84;40.25;101351.69;4512140;31;34164;-81
2022/12/19 00:25:03;;;;;;;;;;;;;;;5.98;39.97;101346.59;4507382;31;34175;-82
2022/12/19 00:27:33;;;;;;;;;;;;;;;5.88;40.06;101349.34;4514867;31;34043;-82
2022/12/19 00:30:05;;;;;;;;;;;;;;;5.95;39.86;101344.72;4520008;31;34838;-80
2022/12/19 00:32:35;;;;;;;;;;;;;;;5.93;39.79;101336.00;4498532;31;34041;-82
2022/12/19 00:35:02;;;;;;;;;;;;;;;6.15;39.49;101345.16;4509569;31;33769;-82
2022/12/19 00:37:29;;;;;;;;;;;;;;;6.07;39.42;101344.63;4508600;31;33513;-81
2022/12/19 00:39:57;;;;;;;;;;;;;;;5.93;39.63;101350.56;4520044;31;33499;-82
2022/12/19 00:42:24;;;;;;;;;;;;;;;6.15;39.84;101351.19;4504934;31;32784;-80
2022/12/19 00:44:51;;;;;;;;;;;;;;;6.10;39.73;101339.69;4510959;31;33756;-81
2022/12/19 00:47:19;;;;;;;;;;;;;;;5.92;39.93;101346.19;4508934;31;34657;-82
2022/12/19 00:49:46;;;;;;;;;;;;;;;5.92;40.26;101347.09;4490929;31;882535;-81
2022/12/19 00:52:15;;;;;;;;;;;;;;;4.50;44.51;101348.38;4510881;31;33278;-82
2022/12/19 00:54:46;;;;;;;;;;;;;;;4.11;45.79;101349.84;4510282;31;34223;-81
2022/12/19 00:57:14;;;;;;;;;;;;;;;4.73;44.73;101349.13;4510757;31;35185;-81
2022/12/19 00:59:41;;;;;;;;;;;;;;;5.04;43.81;101347.06;4509437;31;33800;-82
2022/12/19 01:02:08;;;;;;;;;;;;;;;4.27;45.61;101357.00;4514857;31;33123;-81
2022/12/19 01:04:36;;;;;;;;;;;;;;;3.63;47.20;101342.88;4515222;31;34871;-81
2022/12/19 01:07:11;;;;;;;;;;;;;;;4.79;45.04;101347.91;4511069;31;35095;-81
2022/12/19 01:09:38;;;;;;;;;;;;;;;4.83;44.67;101338.75;4515525;31;34184;-82
2022/12/19 01:14:55;;;;;;;;;;;;;;;4.43;45.99;101338.47;4506075;31;34480;-83
2022/12/19 01:17:33;;;;;;;;;;;;;;;4.34;46.16;101338.69;4513680;31;35327;-83
2022/12/19 01:20:11;;;;;;;;;;;;;;;4.53;45.38;101340.91;4519767;31;34000;-83
2022/12/19 01:22:39;;;;;;;;;;;;;;;3.94;47.10;101334.00;4513232;31;33767;-83
2022/12/19 01:25:06;;;;;;;;;;;;;;;3.77;48.00;101319.94;4506122;31;33449;-81
2022/12/19 01:27:33;;;;;;;;;;;;;;;3.21;49.22;101320.00;4511209;31;34405;-82
2022/12/19 01:30:01;;;;;;;;;;;;;;;2.30;51.98;101317.16;4511660;31;35049;-81
2022/12/19 01:32:29;;;;;;;;;;;;;;;1.86;53.85;101319.59;4513616;31;31893;-82
2022/12/19 01:34:57;;;;;;;;;;;;;;;1.37;54.85;101315.53;4513887;31;35569;-82
2022/12/19 01:37:25;;;;;;;;;;;;;;;1.74;54.77;101313.44;4515594;31;35103;-82
2022/12/19 01:39:52;;;;;;;;;;;;;;;1.88;53.56;101310.34;4520249;31;33966;-83
2022/12/19 01:42:20;;;;;;;;;;;;;;;1.66;54.91;101307.69;4511551;31;33531;-83
2022/12/19 01:45:08;;;;;;;;;;;;;;;0.79;57.67;101314.81;4508920;31;34647;-82
2022/12/19 01:47:43;;;;;;;;;;;;;;;1.07;57.86;101312.97;4511497;31;34330;-82
2022/12/19 01:50:15;;;;;;;;;;;;;;;1.27;56.82;101302.75;4508642;31;36917;-81
2022/12/19 01:52:42;;;;;;;;;;;;;;;1.76;55.70;101311.03;4509322;31;33365;-83
2022/12/19 01:55:10;;;;;;;;;;;;;;;2.00;54.15;101314.69;4504650;31;34109;-82
2022/12/19 01:57:37;;;;;;;;;;;;;;;2.54;53.45;101308.00;4513783;31;35018;-83
2022/12/19 02:00:08;;;;;;;;;;;;;;;2.17;54.78;101322.97;4510515;31;34943;-82
2022/12/19 02:02:42;;;;;;;;;;;;;;;2.58;53.53;101307.44;4503746;31;31456;-82
2022/12/19 02:05:10;;;;;;;;;;;;;;;2.83;53.02;101310.25;4513179;31;34803;-83
2022/12/19 02:07:38;;;;;;;;;;;;;;;2.28;54.69;101307.59;4514000;31;35118;-82
2022/12/19 02:10:06;;;;;;;;;;;;;;;2.76;53.12;101310.53;4499228;31;34822;-83
2022/12/19 02:12:35;;;;;;;;;;;;;;;3.11;52.44;101314.97;4501405;31;33004;-82
2022/12/19 02:15:03;;;;;;;;;;;;;;;3.14;52.53;101313.53;4503835;31;34832;-82
2022/12/19 02:17:34;;;;;;;;;;;;;;;2.15;54.49;101316.81;4501796;31;33957;-82
2022/12/19 02:20:13;;;;;;;;;;;;;;;1.68;56.13;101311.28;4508745;31;33832;-83
2022/12/19 02:22:44;;;;;;;;;;;;;;;2.72;54.00;101316.19;4499916;31;34096;-82
2022/12/19 02:25:30;;;;;;;;;;;;;;;2.77;54.12;101319.16;4509226;31;34856;-82
2022/12/19 02:28:20;;;;;;;;;;;;;;;3.23;52.62;101317.56;4510091;31;33845;-83
2022/12/19 02:30:53;;;;;;;;;;;;;;;3.65;51.70;101317.34;4500694;31;34090;-83
2022/12/19 02:33:26;;;;;;;;;;;;;;;3.62;52.01;101314.53;4505174;31;33263;-82
2022/12/19 02:35:55;;;;;;;;;;;;;;;3.73;51.67;101318.81;4508674;31;35099;-81
2022/12/19 02:38:22;;;;;;;;;;;;;;;3.23;52.39;101322.69;4511495;31;34373;-83
2022/12/19 02:40:51;;;;;;;;;;;;;;;2.47;54.92;101333.88;4514051;31;34002;-83
2022/12/19 02:43:21;;;;;;;;;;;;;;;3.28;52.62;101323.94;4507724;31;33042;-82
2022/12/19 02:45:49;;;;;;;;;;;;;;;3.57;52.18;101331.28;4512185;31;33611;-82
2022/12/19 02:48:16;;;;;;;;;;;;;;;3.07;53.19;101334.34;4500644;31;33975;-83
2022/12/19 02:50:45;;;;;;;;;;;;;;;3.51;52.40;101326.56;4503355;31;34847;-82
2022/12/19 02:53:16;;;;;;;;;;;;;;;2.74;54.42;101330.03;4514500;31;32754;-83
2022/12/19 02:55:51;;;;;;;;;;;;;;;2.69;54.16;101326.22;4514281;31;33708;-82
2022/12/19 02:58:19;;;;;;;;;;;;;;;3.34;52.72;101326.97;4513794;31;35183;-82
2022/12/19 03:00:50;;;;;;;;;;;;;;;2.65;54.53;101324.16;4516384;31;34285;-83
2022/12/19 03:03:21;;;;;;;;;;;;;;;2.68;54.83;101325.31;4508124;31;34176;-82
2022/12/19 03:05:54;;;;;;;;;;;;;;;2.36;55.59;101320.22;4518621;31;34001;-82
2022/12/19 03:08:24;;;;;;;;;;;;;;;3.57;52.57;101318.44;4513948;31;34141;-82
2022/12/19 03:10:54;;;;;;;;;;;;;;;2.32;55.96;101319.84;4511764;31;34476;-82
2022/12/19 03:13:29;;;;;;;;;;;;;;;3.07;54.67;101323.16;4512884;31;33407;-82
2022/12/19 03:15:57;;;;;;;;;;;;;;;3.67;52.69;101313.22;4512933;31;33875;-83
2022/12/19 03:18:24;;;;;;;;;;;;;;;3.26;54.01;101313.56;4514024;31;34967;-83
2022/12/19 03:21:24;;;;;;;;;;;;;;;4.12;51.21;101305.44;4514828;31;34131;-83
2022/12/19 03:23:52;;;;;;;;;;;;;;;3.25;53.05;101301.50;4481051;31;33122;-82
2022/12/19 03:26:20;;;;;;;;;;;;;;;2.91;54.70;101292.91;4507571;31;34300;-82
2022/12/19 03:28:47;;;;;;;;;;;;;;;2.31;55.78;101290.81;4514293;31;34480;-83
2022/12/19 03:31:15;;;;;;;;;;;;;;;2.73;54.97;101297.53;4512966;31;33914;-82
2022/12/19 03:33:43;;;;;;;;;;;;;;;2.37;56.65;101298.97;4508288;31;34126;-83
2022/12/19 03:36:11;;;;;;;;;;;;;;;3.13;54.63;101286.09;4502233;31;33670;-83
2022/12/19 03:38:39;;;;;;;;;;;;;;;3.17;54.47;101288.09;4513225;31;33452;-81
2022/12/19 03:41:06;;;;;;;;;;;;;;;3.12;53.92;101280.87;4501581;31;35404;-83
2022/12/19 03:43:33;;;;;;;;;;;;;;;3.35;54.19;101282.59;4512144;31;32507;-83
2022/12/19 03:46:04;;;;;;;;;;;;;;;3.12;54.08;101278.31;4510437;31;33692;-83
2022/12/19 03:48:42;;;;;;;;;;;;;;;3.74;52.76;101284.66;4511154;31;33679;-82
2022/12/19 03:51:10;;;;;;;;;;;;;;;3.89;52.64;101284.91;4501267;31;34907;-83
2022/12/19 03:53:37;;;;;;;;;;;;;;;3.78;51.94;101290.91;4516506;31;33128;-83
2022/12/19 03:56:07;;;;;;;;;;;;;;;3.32;53.82;101290.06;4516105;31;34072;-82
2022/12/19 03:58:35;;;;;;;;;;;;;;;4.06;52.32;101287.03;4507637;31;34218;-83
2022/12/19 04:01:02;;;;;;;;;;;;;;;4.03;52.25;101285.91;4504576;31;34126;-82
2022/12/19 04:03:30;;;;;;;;;;;;;;;4.64;50.81;101282.59;4502942;31;34237;-82
2022/12/19 04:05:58;;;;;;;;;;;;;;;4.25;51.06;101281.56;4513650;31;34842;-82
2022/12/19 04:08:25;;;;;;;;;;;;;;;4.33;51.34;101295.84;4499347;31;33121;-81
2022/12/19 04:10:54;;;;;;;;;;;;;;;4.41;51.22;101286.09;4500533;31;33724;-82
2022/12/19 04:13:34;;;;;;;;;;;;;;;4.44;51.36;101296.59;4501483;31;33107;-82
2022/12/19 04:16:05;;;;;;;;;;;;;;;4.06;52.19;101284.47;4499457;31;33840;-81
2022/12/19 04:18:32;;;;;;;;;;;;;;;4.31;51.72;101291.34;4509893;31;34384;-82
2022/12/19 04:21:01;;;;;;;;;;;;;;;4.58;50.85;101293.34;4507117;31;33954;-83
2022/12/19 04:23:33;;;;;;;;;;;;;;;4.71;50.67;101284.81;4499756;31;34225;-82
2022/12/19 04:26:01;;;;;;;;;;;;;;;5.47;48.93;101288.28;4502352;31;34069;-82
2022/12/19 04:28:30;;;;;;;;;;;;;;;5.48;48.81;101284.91;4500500;31;34082;-82
2022/12/19 04:30:57;;;;;;;;;;;;;;;5.40;48.98;101289.53;4506710;31;34793;-83
2022/12/19 04:33:24;;;;;;;;;;;;;;;5.95;47.93;101279.47;4506805;31;34082;-82
2022/12/19 04:35:52;;;;;;;;;;;;;;;5.40;49.12;101286.06;4508047;31;33987;-83
2022/12/19 04:38:19;;;;;;;;;;;;;;;5.90;47.32;101276.53;4505595;31;34230;-81
2022/12/19 04:40:46;;;;;;;;;;;;;;;5.32;48.70;101275.28;4494733;31;34400;-83
2022/12/19 04:43:14;;;;;;;;;;;;;;;6.14;46.99;101277.28;4514463;31;32735;-83
2022/12/19 04:45:41;;;;;;;;;;;;;;;4.88;49.85;101279.16;4515028;31;32460;-83
2022/12/19 04:48:09;;;;;;;;;;;;;;;4.54;51.29;101290.44;4515428;31;34377;-83
2022/12/19 04:50:36;;;;;;;;;;;;;;;3.57;53.69;101279.97;4509804;31;34369;-83
2022/12/19 04:53:04;;;;;;;;;;;;;;;3.41;53.95;101273.72;4514160;31;34113;-83
2022/12/19 04:55:31;;;;;;;;;;;;;;;3.29;54.96;101279.56;4509541;31;35648;-83
2022/12/19 04:57:59;;;;;;;;;;;;;;;3.76;54.02;101284.81;4509722;31;35082;-83
2022/12/19 05:00:26;;;;;;;;;;;;;;;3.28;54.63;101288.94;4511165;31;34492;-82
2022/12/19 05:02:53;;;;;;;;;;;;;;;2.82;56.28;101305.03;4509265;31;32532;-83
2022/12/19 05:05:21;;;;;;;;;;;;;;;3.08;56.73;101302.78;4512023;31;34840;-83
2022/12/19 05:07:48;;;;;;;;;;;;;;;3.73;54.54;101299.97;4510837;31;34095;-83
2022/12/19 05:10:15;;;;;;;;;;;;;;;3.93;53.48;101299.75;4512003;31;34861;-82
2022/12/19 05:12:43;;;;;;;;;;;;;;;5.09;51.16;101295.16;4513583;31;33216;-83
2022/12/19 05:15:10;;;;;;;;;;;;;;;5.49;49.92;101291.81;4509901;31;33977;-83
2022/12/19 05:17:37;;;;;;;;;;;;;;;4.92;51.46;101289.66;4511863;31;34379;-83
2022/12/19 05:20:05;;;;;;;;;;;;;;;3.47;54.15;101301.47;4512001;31;34122;-82
2022/12/19 05:22:33;;;;;;;;;;;;;;;4.60;52.09;101309.75;4514123;31;34430;-82
2022/12/19 05:25:00;;;;;;;;;;;;;;;4.19;53.09;101305.88;4501911;31;32864;-83
2022/12/19 05:27:27;;;;;;;;;;;;;;;4.27;52.72;101308.22;4514166;31;33983;-82
2022/12/19 05:29:54;;;;;;;;;;;;;;;4.64;51.82;101295.44;4513557;31;34297;-83
2022/12/19 05:32:21;;;;;;;;;;;;;;;4.75;51.33;101289.38;4511404;31;32891;-83
2022/12/19 05:34:50;;;;;;;;;;;;;;;4.51;52.69;101295.34;4505690;31;33325;-82
2022/12/19 05:37:17;;;;;;;;;;;;;;;4.20;52.79;101292.25;4503030;31;34326;-83
2022/12/19 05:39:44;;;;;;;;;;;;;;;3.96;53.30;101288.81;4504329;31;34252;-83
2022/12/19 05:42:12;;;;;;;;;;;;;;;4.73;52.42;101283.22;4495139;31;33009;-83
2022/12/19 05:44:39;;;;;;;;;;;;;;;4.92;52.10;101279.38;4511608;31;35009;-82
2022/12/19 05:47:06;;;;;;;;;;;;;;;4.54;52.92;101285.28;4507236;31;33955;-84
2022/12/19 05:49:34;;;;;;;;;;;;;;;4.88;52.31;101288.53;4511113;31;36386;-82
2022/12/19 05:52:01;;;;;;;;;;;;;;;4.79;51.27;101287.91;4504388;31;32486;-82
2022/12/19 05:54:28;;;;;;;;;;;;;;;5.18;50.68;101273.44;4514292;31;33768;-82
2022/12/19 05:56:56;;;;;;;;;;;;;;;4.68;52.34;101271.75;4514363;31;34825;-83
2022/12/19 05:59:25;;;;;;;;;;;;;;;5.56;50.01;101279.47;4502798;31;32694;-82
2022/12/19 06:01:52;;;;;;;;;;;;;;;5.26;50.99;101275.72;4507693;31;34285;-83
2022/12/19 06:04:20;;;;;;;;;;;;;;;4.97;51.63;101283.16;4514486;31;33746;-82
2022/12/19 06:06:47;;;;;;;;;;;;;;;5.24;51.32;101274.75;4514428;31;35212;-82
2022/12/19 06:09:14;;;;;;;;;;;;;;;5.49;50.69;101284.09;4508338;31;34200;-83
2022/12/19 06:11:42;;;;;;;;;;;;;;;5.29;50.89;101291.37;4507493;31;33253;-83
2022/12/19 06:14:09;;;;;;;;;;;;;;;5.47;50.87;101296.88;4514473;31;34881;-83
2022/12/19 06:16:36;;;;;;;;;;;;;;;5.96;49.54;101288.97;4513693;31;35367;-84
2022/12/19 06:19:04;;;;;;;;;;;;;;;4.43;53.19;101310.19;4518919;31;33784;-83
2022/12/19 06:21:31;;;;;;;;;;;;;;;4.36;53.94;101311.47;4514563;31;33514;-82
2022/12/19 06:23:58;;;;;;;;;;;;;;;5.17;51.63;101292.22;4516986;31;34364;-82
2022/12/19 06:26:26;;;;;;;;;;;;;;;4.54;53.08;101298.13;4513354;31;33859;-82
2022/12/19 06:28:53;;;;;;;;;;;;;;;4.13;54.63;101306.34;4512975;31;35125;-82
2022/12/19 06:31:21;;;;;;;;;;;;;;;3.82;56.01;101304.06;4508415;31;34408;-83
2022/12/19 06:33:49;;;;;;;;;;;;;;;4.03;55.23;101309.03;4508799;31;35007;-83
2022/12/19 06:36:20;;;;;;;;;;;;;;;4.79;53.46;101298.19;4514202;31;34366;-84
2022/12/19 06:38:47;;;;;;;;;;;;;;;4.72;53.53;101304.56;4514423;31;35238;-84
2022/12/19 06:44:18;;;;;;;;;;;;;;;3.68;55.98;101314.13;4477823;31;32401;-84
2022/12/19 06:46:45;;;;;;;;;;;;;;;4.53;54.31;101314.34;4494834;31;35321;-84
2022/12/19 06:49:12;;;;;;;;;;;;;;;3.96;55.83;101317.94;4507622;31;36202;-83
2022/12/19 06:51:40;;;;;;;;;;;;;;;4.70;53.95;101313.88;4515592;31;33131;-84
2022/12/19 06:54:09;;;;;;;;;;;;;;;5.19;52.20;101289.00;4512359;31;34071;-81
2022/12/19 06:56:36;;;;;;;;;;;;;;;5.40;51.96;101291.22;4508832;31;34434;-82
2022/12/19 06:59:04;;;;;;;;;;;;;;;4.88;52.52;101299.69;4512674;31;33959;-81
2022/12/19 07:01:47;;;;;;;;;;;;;;;2.54;59.44;101315.66;4514510;31;34110;-80
2022/12/19 07:04:15;;;;;;;;;;;;;;;2.29;60.77;101315.37;4513109;31;32759;-81
2022/12/19 07:06:42;;;;;;;;;;;;;;;2.62;60.48;101319.72;4517442;31;34541;-82
2022/12/19 07:09:16;;;;;;;;;;;;;;;2.02;62.10;101310.59;4520681;31;34083;-81
2022/12/19 07:11:43;;;;;;;;;;;;;;;2.92;59.88;101323.78;4516155;31;32889;-82
2022/12/19 07:14:10;;;;;;;;;;;;;;;3.95;56.89;101321.28;4515061;31;33835;-80
2022/12/19 07:16:37;;;;;;;;;;;;;;;3.27;58.30;101315.34;4497313;31;33937;-83
2022/12/19 07:19:05;;;;;;;;;;;;;;;4.10;56.49;101322.41;4511226;31;34586;-81
2022/12/19 07:21:35;;;;;;;;;;;;;;;3.26;58.33;101328.94;4513881;31;33568;-82
2022/12/19 07:24:02;;;;;;;;;;;;;;;3.27;58.41;101327.28;4510909;31;34248;-82
2022/12/19 07:26:30;;;;;;;;;;;;;;;3.51;58.22;101324.00;4498726;31;34115;-82
2022/12/19 07:28:58;;;;;;;;;;;;;;;3.64;57.40;101316.47;4513263;31;33864;-81
2022/12/19 07:31:25;;;;;;;;;;;;;;;3.02;59.37;101322.81;4514719;31;32934;-82
2022/12/19 07:33:52;;;;;;;;;;;;;;;3.61;57.74;101315.34;4518298;31;34987;-81
2022/12/19 07:36:19;;;;;;;;;;;;;;;3.80;57.23;101315.03;4513518;31;33917;-82
2022/12/19 07:38:49;;;;;;;;;;;;;;;2.47;61.56;101322.75;4501396;31;33217;-83
2022/12/19 07:41:17;;;;;;;;;;;;;;;2.44;61.77;101320.81;4511559;31;33993;-83
2022/12/19 07:43:44;;;;;;;;;;;;;;;3.16;59.41;101311.06;4510285;31;34141;-82
2022/12/19 07:46:11;;;;;;;;;;;;;;;3.52;58.42;101307.81;4518097;31;34166;-82
2022/12/19 07:48:39;;;;;;;;;;;;;;;3.35;58.40;101311.69;4515628;31;33948;-82
2022/12/19 07:51:06;;;;;;;;;;;;;;;2.97;58.64;101313.88;4517267;31;33014;-82
2022/12/19 07:53:33;;;;;;;;;;;;;;;2.09;61.10;101324.00;4517064;31;34307;-82
2022/12/19 07:56:01;;;;;;;;;;;;;;;1.65;61.84;101328.03;4513462;31;34480;-80
2022/12/19 07:58:29;;;;;;;;;;;;;;;2.21;60.17;101339.47;4513285;31;34806;-82
2022/12/19 08:00:56;;;;;;;;;;;;;;;2.12;60.10;101339.63;4499364;31;33378;-82
2022/12/19 08:03:24;;;;;;;;;;;;;;;2.93;58.10;101338.37;4510717;31;34704;-82
2022/12/19 08:05:51;;;;;;;;;;;;;;;2.41;59.06;101334.25;4513343;31;34837;-83
2022/12/19 08:08:19;;;;;;;;;;;;;;;3.38;56.58;101335.00;4515338;31;33691;-82
2022/12/19 08:10:46;;;;;;;;;;;;;;;3.90;54.94;101341.50;4515992;31;33310;-83
2022/12/19 08:13:14;;;;;;;;;;;;;;;4.03;54.90;101335.56;4515874;31;34423;-83
2022/12/19 08:15:41;;;;;;;;;;;;;;;2.00;60.22;101343.72;4515057;31;34535;-83
2022/12/19 08:18:08;;;;;;;;;;;;;;;3.45;56.83;101353.41;4515649;31;34100;-83
2022/12/19 08:20:35;;;;;;;;;;;;;;;3.38;56.61;101352.94;4507553;31;33321;-82
2022/12/19 08:23:03;;;;;;;;;;;;;;;2.53;58.62;101365.06;4509573;31;34100;-84
2022/12/19 08:25:30;;;;;;;;;;;;;;;2.96;57.39;101362.47;4507832;31;34896;-83
2022/12/19 08:27:57;;;;;;;;;;;;;;;3.82;54.70;101347.69;4515190;31;34204;-83
2022/12/19 08:30:24;;;;;;;;;;;;;;;3.81;52.95;101335.66;4515602;31;33957;-83
2022/12/19 08:32:52;;;;;;;;;;;;;;;2.63;54.98;101344.56;4515451;31;35048;-83
2022/12/19 08:35:19;;;;;;;;;;;;;;;2.46;55.96;101346.53;4515596;31;34025;-83
2022/12/19 08:37:46;;;;;;;;;;;;;;;2.84;53.81;101337.69;4515166;31;34210;-83
2022/12/19 08:40:13;;;;;;;;;;;;;;;2.88;53.38;101333.69;4515236;31;33408;-83
2022/12/19 08:42:41;;;;;;;;;;;;;;;2.13;54.54;101325.16;4515129;31;34306;-83
2022/12/19 08:45:08;;;;;;;;;;;;;;;1.85;55.53;101322.91;4515050;31;35272;-83
2022/12/19 08:47:35;;;;;;;;;;;;;;;1.73;54.90;101319.34;4515125;31;33292;-83
2022/12/19 08:50:03;;;;;;;;;;;;;;;2.81;52.12;101322.06;4515289;31;32975;-82
2022/12/19 08:52:30;;;;;;;;;;;;;;;2.23;53.12;101325.09;4515246;31;32734;-82
2022/12/19 08:54:58;;;;;;;;;;;;;;;2.63;52.18;101323.19;4515524;31;34519;-83
2022/12/19 08:57:25;;;;;;;;;;;;;;;2.46;53.77;101320.94;4514866;31;35012;-83
2022/12/19 08:59:52;;;;;;;;;;;;;;;2.91;51.49;101316.84;4515039;31;32989;-83
2022/12/19 09:02:20;;;;;;;;;;;;;;;1.71;54.29;101333.69;4515183;31;33696;-83
2022/12/19 09:04:47;;;;;;;;;;;;;;;1.06;56.39;101347.81;4515240;31;34307;-83
2022/12/19 09:07:35;;;;;;;;;;;;;;;1.87;55.17;101323.94;4515006;31;33915;-83
2022/12/19 09:10:05;;;;;;;;;;;;;;;2.71;52.24;101316.97;4507503;31;33018;-83
2022/12/19 09:12:32;;;;;;;;;;;;;;;1.44;55.17;101307.63;4514700;31;35234;-82
2022/12/19 09:14:59;;;;;;;;;;;;;;;2.12;53.63;101313.12;4515222;31;34797;-82
2022/12/19 09:17:27;;;;;;;;;;;;;;;1.85;54.61;101304.09;4514859;31;34209;-82
2022/12/19 09:19:54;;;;;;;;;;;;;;;1.16;55.84;101318.84;4514941;31;33505;-82
2022/12/19 09:22:21;;;;;;;;;;;;;;;1.49;55.31;101337.78;4515111;31;33873;-83
2022/12/19 09:24:55;;;;;;;;;;;;;;;1.40;55.85;101336.25;4514996;31;34386;-82
2022/12/19 09:27:23;;;;;;;;;;;;;;;1.31;56.61;101342.22;4514828;31;34263;-82
2022/12/19 09:29:50;;;;;;;;;;;;;;;2.22;54.02;101341.25;4506990;31;33507;-83
2022/12/19 09:32:17;;;;;;;;;;;;;;;2.03;54.08;101340.53;4515133;31;34234;-83
2022/12/19 09:34:44;;;;;;;;;;;;;;;1.85;54.39;101333.13;4514722;31;34654;-82
2022/12/19 09:37:12;;;;;;;;;;;;;;;2.14;54.46;101316.72;4514859;31;34871;-80
2022/12/19 09:39:46;;;;;;;;;;;;;;;2.59;53.72;101313.47;4515285;31;34191;-82
2022/12/19 09:42:13;;;;;;;;;;;;;;;3.68;51.11;101309.00;4514735;31;34944;-82
2022/12/19 09:44:41;;;;;;;;;;;;;;;4.04;50.66;101298.84;4515075;31;35151;-82
2022/12/19 09:47:17;;;;;;;;;;;;;;;4.44;49.45;101304.31;4514646;31;33962;-82
2022/12/19 09:49:45;;;;;;;;;;;;;;;3.67;51.34;101290.13;4510743;31;33751;-82
2022/12/19 09:52:14;;;;;;;;;;;;;;;3.21;51.92;101286.69;4514704;31;34222;-82
2022/12/19 09:54:44;;;;;;;;;;;;;;;2.63;53.47;101298.47;4512733;31;34309;-82
2022/12/19 09:57:13;;;;;;;;;;;;;;;1.82;55.03;101291.97;4514440;31;33845;-80
2022/12/19 09:59:45;;;;;;;;;;;;;;;2.02;55.73;101290.13;4514999;31;33068;-82
2022/12/19 10:02:28;;;;;;;;;;;;;;;2.07;54.66;101281.16;4514840;31;33579;-81
2022/12/19 10:05:00;;;;;;;;;;;;;;;2.75;53.46;101280.59;4515174;31;34290;-82
2022/12/19 10:07:47;;;;;;;;;;;;;;;3.10;53.01;101269.59;4501619;31;34758;-82
2022/12/19 10:10:39;;;;;;;;;;;;;;;2.60;53.97;101272.59;4514677;31;34068;-82
2022/12/19 10:13:47;;;;;;;;;;;;;;;1.56;56.52;101271.94;4506910;31;33921;-82
2022/12/19 10:16:15;;;;;;;;;;;;;;;1.80;56.52;101267.94;4482537;31;35258;-82
2022/12/19 10:18:46;;;;;;;;;;;;;;;2.92;54.12;101258.84;4515042;31;33935;-82
2022/12/19 10:21:24;;;;;;;;;;;;;;;3.47;51.89;101265.56;4514829;31;33379;-82
2022/12/19 10:24:27;;;;;;;;;;;;;;;4.73;48.99;101261.78;4502980;31;34985;-82
2022/12/19 10:27:05;;;;;;;;;;;;;;;4.37;49.66;101272.16;4514886;31;34164;-82
2022/12/19 10:29:41;;;;;;;;;;;;;;;3.47;51.49;101267.25;4505388;31;34122;-82
2022/12/19 10:32:21;;;;;;;;;;;;;;;3.05;52.61;101261.56;4514839;31;33406;-82
2022/12/19 10:34:48;;;;;;;;;;;;;;;2.83;53.38;101253.87;4506500;31;33746;-83
2022/12/19 10:37:18;;;;;;;;;;;;;;;2.66;53.72;101259.41;4506639;31;33638;-82
2022/12/19 10:39:59;;;;;;;;;;;;;;;2.74;53.52;101242.94;4505809;31;34168;-82
2022/12/19 10:42:42;;;;;;;;;;;;;;;2.30;54.60;101242.94;4507189;31;33209;-82
2022/12/19 10:45:11;;;;;;;;;;;;;;;2.68;53.47;101245.03;4508923;31;33826;-83
2022/12/19 10:47:39;;;;;;;;;;;;;;;2.74;53.20;101252.31;4512005;31;34065;-82
2022/12/19 10:50:11;;;;;;;;;;;;;;;3.17;52.53;101235.97;4514310;31;34691;-80
2022/12/19 10:52:51;;;;;;;;;;;;;;;2.78;53.06;101236.41;4506453;31;33819;-81
2022/12/19 10:55:21;;;;;;;;;;;;;;;2.24;54.55;101241.56;4509688;31;34754;-83
2022/12/19 10:57:49;;;;;;;;;;;;;;;3.44;52.72;101232.00;4514050;31;33918;-82
2022/12/19 11:00:16;;;;;;;;;;;;;;;3.76;50.99;101226.69;4514391;31;33749;-83
2022/12/19 11:02:45;;;;;;;;;;;;;;;2.95;52.60;101228.31;4506723;31;33337;-81
2022/12/19 11:05:26;;;;;;;;;;;;;;;2.48;54.61;101235.81;4508072;31;34897;-82
2022/12/19 11:07:58;;;;;;;;;;;;;;;2.97;53.57;101223.31;4506014;31;33517;-83
2022/12/19 11:10:32;;;;;;;;;;;;;;;3.13;53.09;101219.47;4514076;31;33962;-81
2022/12/19 11:13:25;;;;;;;;;;;;;;;3.31;53.00;101212.25;4508556;31;32944;-82
2022/12/19 11:16:20;;;;;;;;;;;;;;;3.48;52.59;101217.72;4514117;31;33719;-82
2022/12/19 11:19:14;;;;;;;;;;;;;;;4.01;50.80;101221.62;4513959;31;35096;-83
2022/12/19 11:22:06;;;;;;;;;;;;;;;3.21;52.28;101224.28;4505883;31;34420;-82
2022/12/19 11:24:53;;;;;;;;;;;;;;;3.48;51.74;101225.44;4514018;31;34012;-81
2022/12/19 11:27:44;;;;;;;;;;;;;;;3.28;51.62;101224.84;4506656;31;33772;-82
2022/12/19 11:30:31;;;;;;;;;;;;;;;3.20;51.77;101215.69;4501203;31;34252;-81
2022/12/19 11:33:19;;;;;;;;;;;;;;;3.94;50.30;101205.69;4506082;31;32994;-83
2022/12/19 11:35:50;;;;;;;;;;;;;;;3.19;52.33;101201.09;4513704;31;33487;-82
2022/12/19 11:38:20;;;;;;;;;;;;;;;3.21;52.30;101206.31;4513611;31;34317;-82
2022/12/19 11:40:49;;;;;;;;;;;;;;;3.16;52.61;101206.87;4507709;31;34260;-82
2022/12/19 11:43:19;;;;;;;;;;;;;;;3.50;52.15;101196.56;4507078;31;33780;-82
2022/12/19 11:46:07;;;;;;;;;;;;;;;3.38;52.02;101196.56;4515507;31;33070;-82
2022/12/19 11:48:43;;;;;;;;;;;;;;;4.18;50.11;101174.06;4515901;31;35146;-82
2022/12/19 11:51:16;;;;;;;;;;;;;;;3.71;51.05;101181.81;4515261;31;34019;-82
2022/12/19 11:53:59;;;;;;;;;;;;;;;3.23;51.65;101180.03;4511331;31;34389;-81
2022/12/19 11:56:27;;;;;;;;;;;;;;;2.99;53.17;101171.41;4514005;31;33667;-83
2022/12/19 11:58:56;;;;;;;;;;;;;;;3.38;51.96;101165.78;4515555;31;34777;-81
2022/12/19 12:01:39;;;;;;;;;;;;;;;3.06;53.11;101171.09;4515484;31;34785;-82
2022/12/19 12:04:25;;;;;;;;;;;;;;;3.29;52.75;101162.53;4515718;31;34327;-81
2022/12/19 12:06:53;;;;;;;;;;;;;;;2.77;53.66;101163.78;4516130;31;33176;-83
2022/12/19 12:09:27;;;;;;;;;;;;;;;2.19;55.76;101170.44;4515398;31;33701;-82
2022/12/19 12:12:14;;;;;;;;;;;;;;;2.79;54.50;101166.47;4507458;31;33514;-83
2022/12/19 12:15:08;;;;;;;;;;;;;;;3.42;52.57;101170.34;4515493;31;34109;-82
2022/12/19 12:18:02;;;;;;;;;;;;;;;3.98;51.07;101151.22;4487886;31;34049;-83
2022/12/19 12:20:49;;;;;;;;;;;;;;;3.65;51.77;101155.75;4503750;31;34810;-83
2022/12/19 12:23:36;;;;;;;;;;;;;;;3.78;51.24;101158.41;4515488;31;34026;-83
2022/12/19 12:26:37;;;;;;;;;;;;;;;3.76;51.47;101156.53;4515108;31;35360;-82
2022/12/19 12:29:44;;;;;;;;;;;;;;;3.37;52.15;101157.97;4507566;31;34200;-83
2022/12/19 12:32:51;;;;;;;;;;;;;;;3.43;51.83;101153.28;4513377;31;34942;-83
2022/12/19 12:35:39;;;;;;;;;;;;;;;2.97;53.28;101149.91;4515210;31;34387;-81
2022/12/19 12:38:29;;;;;;;;;;;;;;;3.60;51.90;101151.97;4515451;31;34764;-82
2022/12/19 12:40:58;;;;;;;;;;;;;;;3.36;51.78;101157.06;4515553;31;34070;-82
2022/12/19 12:43:28;;;;;;;;;;;;;;;3.90;50.93;101146.47;4515169;31;33866;-81
2022/12/19 12:45:55;;;;;;;;;;;;;;;4.72;49.18;101141.81;4515333;31;34350;-82
2022/12/19 12:48:25;;;;;;;;;;;;;;;4.28;49.58;101142.22;4515053;31;34199;-81
2022/12/19 12:50:54;;;;;;;;;;;;;;;4.34;49.11;101140.97;4515090;31;34156;-82
2022/12/19 12:53:23;;;;;;;;;;;;;;;3.87;50.49;101147.94;4514481;31;34194;-81
2022/12/19 12:55:50;;;;;;;;;;;;;;;4.21;49.99;101143.50;4510496;31;34104;-82
2022/12/19 12:58:36;;;;;;;;;;;;;;;3.13;51.93;101139.13;4504782;31;33802;-81
2022/12/19 13:01:08;;;;;;;;;;;;;;;3.08;52.73;101140.47;4502956;31;31995;-82
2022/12/19 13:03:35;;;;;;;;;;;;;;;3.62;51.43;101135.00;4507528;31;34795;-82
2022/12/19 13:06:02;;;;;;;;;;;;;;;3.57;51.08;101126.09;4515464;31;34169;-81
2022/12/19 13:08:33;;;;;;;;;;;;;;;2.74;53.80;101124.25;4515272;31;33616;-82
2022/12/19 13:11:01;;;;;;;;;;;;;;;2.71;54.17;101124.00;4515666;31;33839;-82
2022/12/19 13:13:47;;;;;;;;;;;;;;;2.25;55.50;101136.75;4514811;31;34124;-82